Time;durP1;ratioP1;P1;durP2;ratioP2;P2;SDS_P1;SDS_P2;PMS_P1;PMS_P2;Temp;Humidity;BMP_temperature;BMP_pressure;BME280_temperature;BME280_humidity;BME280_pressure;Samples;Min_cycle;Max_cycle;Signal;HPM_P1;HPM_P2
2021/05/06 00:02:01;;;;;;;3.50;2.92;;;;;;;5.45;78.49;100911.97;5092051;28;20051;-40
2021/05/06 00:32:15;;;;;;;3.53;3.22;;;;;;;5.46;78.93;100870.72;5051639;28;20040;-39
2021/05/06 00:34:41;;;;;;;3.60;2.97;;;;;;;5.48;79.29;100869.50;5051047;28;20041;-39
2021/05/06 00:37:06;;;;;;;4.07;3.30;;;;;;;5.55;78.80;100870.34;5051512;28;20098;-39
2021/05/06 00:39:42;;;;;;;4.20;3.57;;;;;;;5.47;78.73;100862.50;5050722;28;20112;-39
2021/05/06 00:45:15;;;;;;;3.50;3.20;;;;;;;5.47;79.17;100861.66;5050534;28;20029;-39
2021/05/06 01:03:02;;;;;;;4.32;3.60;;;;;;;5.43;79.81;100853.16;5138297;27;20046;-39
2021/05/06 01:12:56;;;;;;;3.90;3.60;;;;;;;5.45;80.71;100842.25;5137936;27;20039;-39
2021/05/06 01:15:21;;;;;;;7.00;3.87;;;;;;;5.41;80.04;100837.25;5138638;27;20023;-39
2021/05/06 01:17:47;;;;;;;4.07;3.38;;;;;;;5.48;80.32;100836.50;5137695;27;20412;-39
2021/05/06 01:20:13;;;;;;;3.97;3.47;;;;;;;5.50;80.58;100837.09;5137617;27;20058;-39
2021/05/06 01:22:39;;;;;;;4.85;4.00;;;;;;;5.57;80.12;100838.00;5137589;27;20027;-39
2021/05/06 01:25:06;;;;;;;4.55;3.63;;;;;;;5.61;79.72;100839.22;5137929;27;20534;-39
2021/05/06 01:27:45;;;;;;;3.97;3.58;;;;;;;5.59;79.78;100839.44;5137672;27;20023;-39
2021/05/06 01:32:57;;;;;;;4.80;3.72;;;;;;;5.64;80.20;100836.16;5137481;27;20122;-39
2021/05/06 01:35:49;;;;;;;4.35;3.95;;;;;;;5.48;80.82;100836.50;5137387;27;20110;-39
2021/05/06 01:46:11;;;;;;;4.30;3.90;;;;;;;5.55;80.93;100830.13;5137323;27;20058;-39
2021/05/06 01:59:30;;;;;;;5.05;4.55;;;;;;;5.48;81.38;100825.75;5136994;27;20042;-39
2021/05/06 02:01:40;;;;;;;6.47;4.70;;;;;;;5.43;81.36;100827.19;5135678;27;20064;-39
2021/05/06 02:04:06;;;;;;;5.27;4.27;;;;;;;5.49;81.15;100827.41;5136816;27;20023;-39
2021/05/06 02:06:31;;;;;;;4.83;4.37;;;;;;;5.47;81.42;100835.66;5136274;27;20034;-39
2021/05/06 02:08:57;;;;;;;5.47;4.73;;;;;;;5.49;81.27;100833.59;5136767;27;20052;-39
2021/05/06 02:11:23;;;;;;;6.10;5.03;;;;;;;5.42;80.81;100830.06;5136820;27;20072;-39
2021/05/06 02:13:51;;;;;;;5.10;4.50;;;;;;;5.45;81.36;100826.97;5136634;27;20337;-39
2021/05/06 02:16:20;;;;;;;6.13;4.90;;;;;;;5.38;81.18;100823.44;5137469;27;20034;-39
2021/05/06 02:18:46;;;;;;;6.57;5.15;;;;;;;5.34;81.73;100822.16;5136358;27;20057;-39
2021/05/06 02:21:16;;;;;;;5.47;4.97;;;;;;;5.37;81.39;100819.09;5137419;27;20349;-39
2021/05/06 02:23:41;;;;;;;6.65;4.90;;;;;;;5.36;81.51;100820.09;5136357;27;20019;-39
2021/05/06 02:26:07;;;;;;;6.43;5.55;;;;;;;5.34;81.79;100814.13;5137005;27;20033;-39
2021/05/06 02:28:32;;;;;;;5.97;5.37;;;;;;;5.40;81.73;100816.00;5136372;27;20031;-39
2021/05/06 02:30:57;;;;;;;6.17;5.37;;;;;;;5.37;81.10;100813.75;5136895;27;20054;-39
2021/05/06 02:33:23;;;;;;;5.67;5.17;;;;;;;5.37;81.66;100814.56;5136288;27;20035;-38
2021/05/06 02:35:48;;;;;;;5.77;5.00;;;;;;;5.30;81.36;100808.31;5137032;27;20025;-39
2021/05/06 02:38:13;;;;;;;5.33;4.87;;;;;;;5.31;81.57;100812.66;5136523;27;20019;-39
2021/05/06 02:40:39;;;;;;;6.07;5.40;;;;;;;5.29;81.94;100812.03;5136787;27;20015;-38
2021/05/06 02:43:04;;;;;;;5.67;4.97;;;;;;;5.26;81.68;100814.28;5135789;27;20528;-39
2021/05/06 02:45:29;;;;;;;8.97;5.43;;;;;;;5.22;82.15;100816.53;5135223;27;20035;-39
2021/05/06 02:47:55;;;;;;;6.33;5.47;;;;;;;5.18;82.04;100803.72;5136261;27;20027;-39
2021/05/06 02:50:23;;;;;;;6.43;5.47;;;;;;;5.13;82.24;100807.00;5136262;27;20357;-39
2021/05/06 02:58:05;;;;;;;7.55;6.70;;;;;;;5.06;81.68;100796.19;5135885;27;20042;-39
2021/05/06 03:03:14;;;;;;;7.07;6.15;;;;;;;5.02;82.41;100794.94;5136154;27;20046;-39
2021/05/06 03:05:40;;;;;;;7.17;6.30;;;;;;;4.98;82.17;100790.16;5136226;27;20035;-39
2021/05/06 03:08:16;;;;;;;8.15;6.70;;;;;;;4.95;82.44;100790.56;5135629;27;20031;-39
2021/05/06 03:24:02;;;;;;;8.02;7.32;;;;;;;4.70;83.07;100782.97;5135361;27;20054;-39
2021/05/06 03:26:29;;;;;;;;;;;;;;;4.83;81.63;100790.25;5135936;27;20027;-38
2021/05/06 03:28:59;;;;;;;8.98;7.72;;;;;;;4.76;82.83;100800.09;5135375;27;19907;-39
2021/05/06 03:31:39;;;;;;;8.57;7.68;;;;;;;4.77;83.25;100797.22;5135073;27;20034;-38
2021/05/06 04:17:18;;;;;;;11.48;8.88;;;;;;;4.67;84.19;100791.38;5051329;28;20482;-40
2021/05/06 04:28:16;;;;;;;10.35;8.98;;;;;;;4.74;84.00;100783.41;5133513;27;20045;-40
2021/05/06 04:35:59;;;;;;;8.90;7.95;;;;;;;4.77;84.04;100802.59;5134321;28;20080;-40
2021/05/06 04:38:24;;;;;;;11.02;8.70;;;;;;;4.75;84.26;100803.81;5134220;27;20022;-39
2021/05/06 04:41:14;;;;;;;11.13;9.53;;;;;;;4.79;84.07;100805.09;5134246;27;20027;-40
2021/05/06 05:09:50;;;;;;;10.82;8.27;;;;;;;4.88;83.64;100799.41;5134290;28;20053;-40
2021/05/06 05:17:49;;;;;;;10.65;8.30;;;;;;;4.99;83.08;100789.16;5133991;27;20469;-40
2021/05/06 05:28:00;;;;;;;10.02;8.82;;;;;;;5.17;82.75;100792.16;5133902;27;20189;-39
2021/05/06 05:30:28;;;;;;;10.45;9.48;;;;;;;5.19;83.18;100795.47;5134012;27;20407;-40
2021/05/06 05:32:53;;;;;;;13.25;11.32;;;;;;;5.24;83.15;100792.22;5133664;27;20118;-40
2021/05/06 05:36:08;;;;;;;11.57;10.37;;;;;;;5.32;82.76;100792.88;5134095;28;20063;-40
2021/05/06 05:38:31;;;;;;;11.82;10.32;;;;;;;5.38;82.60;100799.31;5127806;28;20102;-40
2021/05/06 05:57:01;;;;;;;11.85;10.75;;;;;;;5.85;82.37;100805.69;5094425;28;20035;-40
2021/05/06 05:59:26;;;;;;;12.25;10.27;;;;;;;5.90;81.77;100803.22;5093791;28;20064;-40
2021/05/06 06:01:51;;;;;;;12.50;11.20;;;;;;;5.84;81.59;100807.56;5094405;28;20078;-40
2021/05/06 06:04:17;;;;;;;11.63;10.10;;;;;;;5.90;82.40;100806.78;5094055;28;20027;-40
2021/05/06 06:06:42;;;;;;;11.17;9.83;;;;;;;5.92;81.61;100796.69;5094431;28;20071;-40
2021/05/06 06:09:07;;;;;;;11.70;10.50;;;;;;;6.07;81.85;100803.75;5093888;28;20032;-40
2021/05/06 06:11:33;;;;;;;11.53;10.17;;;;;;;6.12;81.00;100806.66;5094171;28;20166;-40
2021/05/06 06:14:04;;;;;;;10.53;9.57;;;;;;;6.22;80.82;100807.09;5093483;28;20120;-40
2021/05/06 06:16:31;;;;;;;11.00;9.75;;;;;;;6.20;80.40;100798.41;5093433;28;20032;-40
2021/05/06 06:18:58;;;;;;;12.70;9.57;;;;;;;6.29;80.30;100801.72;5093511;28;20036;-40
2021/05/06 06:21:45;;;;;;;9.18;8.25;;;;;;;6.40;79.98;100799.28;5093188;28;20055;-40
2021/05/06 06:24:11;;;;;;;11.07;8.50;;;;;;;6.49;79.80;100799.06;5093430;28;20070;-40
2021/05/06 06:26:37;;;;;;;11.15;8.98;;;;;;;6.58;79.71;100797.81;5129793;27;20271;-40
2021/05/06 06:29:13;;;;;;;10.18;8.82;;;;;;;6.55;79.78;100812.50;5136832;27;20035;-40
2021/05/06 06:31:41;;;;;;;9.18;8.18;;;;;;;6.49;79.22;100799.91;5136720;27;20459;-40
2021/05/06 06:34:07;;;;;;;8.10;7.30;;;;;;;6.42;78.79;100810.63;5136132;27;20027;-40
2021/05/06 06:36:34;;;;;;;9.80;7.53;;;;;;;6.36;79.23;100816.81;5136688;27;20031;-39
2021/05/06 06:39:00;;;;;;;9.02;7.80;;;;;;;6.31;79.54;100821.97;5136246;27;20034;-40
2021/05/06 06:41:25;;;;;;;11.05;9.10;;;;;;;6.35;79.63;100819.72;5136865;27;20027;-40
2021/05/06 06:43:53;;;;;;;11.73;10.53;;;;;;;6.32;80.08;100812.06;5135838;27;20028;-40
2021/05/06 06:46:19;;;;;;;13.43;11.27;;;;;;;6.32;79.96;100809.38;5136476;27;20027;-40
2021/05/06 06:48:45;;;;;;;15.02;13.52;;;;;;;6.36;80.01;100814.13;5136115;27;20022;-40
2021/05/06 06:51:10;;;;;;;15.48;13.95;;;;;;;6.42;79.89;100802.56;5135831;27;20031;-40
2021/05/06 06:53:36;;;;;;;16.47;14.90;;;;;;;6.52;79.90;100804.84;5136332;27;20034;-40
2021/05/06 06:56:01;;;;;;;18.27;16.37;;;;;;;6.68;79.79;100799.06;5136653;27;20031;-40
2021/05/06 06:58:27;;;;;;;19.33;17.42;;;;;;;6.78;80.29;100800.53;5135990;27;20035;-40
2021/05/06 07:00:52;;;;;;;20.93;18.60;;;;;;;6.89;79.76;100798.06;5136231;27;20463;-40
2021/05/06 07:03:18;;;;;;;21.03;18.83;;;;;;;6.99;79.60;100803.00;5135798;27;20160;-40
2021/05/06 07:05:44;;;;;;;20.02;17.85;;;;;;;7.03;78.34;100789.94;5136586;27;20063;-40
2021/05/06 07:08:21;;;;;;;20.07;17.60;;;;;;;7.13;78.41;100795.75;5135816;27;20471;-40
2021/05/06 07:10:47;;;;;;;;;;;;;;;7.37;78.71;100792.41;5136444;27;20031;-40
2021/05/06 07:13:14;;;;;;;19.50;17.60;;;;;;;7.35;76.66;100793.63;5135405;27;19911;-40
2021/05/06 07:15:39;;;;;;;19.27;17.30;;;;;;;7.38;77.41;100791.34;5134722;27;20352;-40
2021/05/06 07:18:08;;;;;;;18.90;16.90;;;;;;;7.43;77.18;100788.84;5135487;27;20041;-40
2021/05/06 07:20:33;;;;;;;19.80;17.65;;;;;;;7.45;76.62;100786.75;5134385;27;20345;-40
2021/05/06 07:22:59;;;;;;;19.30;17.40;;;;;;;7.55;76.30;100780.09;5135361;27;20031;-40
2021/05/06 07:25:24;;;;;;;17.33;15.63;;;;;;;7.64;75.65;100786.91;5135730;27;20045;-40
2021/05/06 07:27:49;;;;;;;17.90;16.03;;;;;;;7.79;76.42;100784.78;5135328;27;20059;-40
2021/05/06 07:30:15;;;;;;;19.27;17.40;;;;;;;7.90;76.80;100777.88;5135828;27;20106;-40
2021/05/06 07:32:41;;;;;;;18.38;16.58;;;;;;;8.09;74.45;100781.50;5135241;27;20020;-40
2021/05/06 07:35:07;;;;;;;18.42;16.58;;;;;;;8.20;74.80;100788.94;5135763;27;20035;-40
2021/05/06 07:37:32;;;;;;;15.77;14.37;;;;;;;8.32;73.60;100787.19;5135212;27;20088;-40
2021/05/06 07:39:57;;;;;;;16.53;14.27;;;;;;;8.56;73.42;100785.59;5135212;27;20509;-40
2021/05/06 07:42:23;;;;;;;15.40;14.00;;;;;;;8.47;70.71;100785.03;5134713;27;20023;-40
2021/05/06 07:44:48;;;;;;;15.00;13.60;;;;;;;8.45;73.90;100789.81;5135478;27;20061;-40
2021/05/06 07:47:14;;;;;;;15.87;14.27;;;;;;;8.48;72.77;100783.97;5135358;27;20034;-40
2021/05/06 07:49:40;;;;;;;15.65;13.90;;;;;;;8.56;72.29;100784.75;5134708;27;20020;-40
2021/05/06 07:52:07;;;;;;;13.50;12.20;;;;;;;8.51;71.46;100791.63;5134626;27;20083;-40
2021/05/06 07:54:33;;;;;;;13.77;12.57;;;;;;;8.42;70.60;100787.56;5135112;27;20039;-40
2021/05/06 07:56:59;;;;;;;15.30;13.45;;;;;;;8.43;70.81;100789.19;5135205;27;20374;-40
2021/05/06 07:59:26;;;;;;;13.50;12.30;;;;;;;8.46;70.62;100777.16;5134831;27;20076;-40
2021/05/06 08:01:51;;;;;;;13.02;11.57;;;;;;;8.63;69.74;100775.56;5135138;27;20030;-40
2021/05/06 08:04:19;;;;;;;12.38;11.25;;;;;;;9.00;71.59;100781.88;5132879;27;20035;-40
2021/05/06 08:06:44;;;;;;;12.30;11.10;;;;;;;9.21;69.65;100775.25;5135493;27;20412;-40
2021/05/06 08:09:10;;;;;;;10.43;9.50;;;;;;;9.10;67.00;100778.69;5134910;27;20027;-40
2021/05/06 08:11:35;;;;;;;9.60;8.50;;;;;;;8.96;66.68;100772.59;5135439;27;20482;-40
2021/05/06 08:14:01;;;;;;;9.83;8.93;;;;;;;8.77;66.85;100781.69;5134722;27;20035;-40
2021/05/06 08:16:26;;;;;;;8.97;8.27;;;;;;;8.65;67.91;100773.50;5134822;27;20098;-40
2021/05/06 08:18:51;;;;;;;10.83;9.83;;;;;;;8.64;69.92;100758.38;5134532;27;20042;-40
2021/05/06 08:21:16;;;;;;;9.47;8.50;;;;;;;8.55;68.05;100759.69;5135610;27;20112;-40
2021/05/06 08:23:43;;;;;;;9.73;8.73;;;;;;;8.49;67.43;100757.84;5134183;27;20034;-40
2021/05/06 08:26:08;;;;;;;;;;;;;;;8.56;69.24;100753.25;5135469;27;20027;-40
2021/05/06 08:28:33;;;;;;;10.35;9.10;;;;;;;8.41;69.17;100742.78;5135215;28;19907;-40
2021/05/06 08:30:59;;;;;;;9.63;8.73;;;;;;;8.38;68.56;100747.78;5134421;27;20068;-40
2021/05/06 08:33:24;;;;;;;9.83;8.80;;;;;;;8.36;66.82;100742.63;5134421;27;20034;-40
2021/05/06 08:35:49;;;;;;;9.10;7.80;;;;;;;8.41;66.73;100745.50;5134701;27;20569;-40
2021/05/06 08:38:15;;;;;;;8.73;7.87;;;;;;;8.46;64.80;100744.84;5134090;28;20023;-40
2021/05/06 08:40:41;;;;;;;8.30;7.50;;;;;;;8.52;65.45;100744.75;5134559;28;20019;-40
2021/05/06 08:43:08;;;;;;;;;;;;;;;8.71;66.03;100747.53;5134931;27;20027;-40
2021/05/06 08:45:41;;;;;;;8.52;7.68;;;;;;;8.69;66.17;100752.31;5134054;28;19911;-40
2021/05/06 08:48:07;;;;;;;9.70;8.73;;;;;;;8.79;67.02;100754.53;5133414;28;20053;-40
2021/05/06 08:50:32;;;;;;;8.80;8.10;;;;;;;8.96;65.16;100742.09;5134509;27;20114;-40
2021/05/06 08:52:59;;;;;;;9.30;8.05;;;;;;;9.13;63.64;100751.28;5134260;27;20027;-40
2021/05/06 08:55:25;;;;;;;8.60;7.85;;;;;;;9.22;62.64;100746.38;5134744;27;20370;-40
2021/05/06 08:57:50;;;;;;;9.00;8.10;;;;;;;9.36;62.57;100747.06;5134714;27;20031;-40
2021/05/06 09:00:16;;;;;;;9.23;8.23;;;;;;;9.50;62.06;100740.47;5134422;27;20455;-40
2021/05/06 09:02:48;;;;;;;9.75;8.82;;;;;;;9.67;64.31;100744.22;5133783;27;20024;-40
2021/05/06 09:05:14;;;;;;;9.93;8.95;;;;;;;9.62;63.67;100749.47;5134033;27;20027;-40
2021/05/06 09:07:44;;;;;;;9.15;8.32;;;;;;;9.55;63.45;100751.41;5133704;27;20030;-40
2021/05/06 09:10:30;;;;;;;8.75;7.95;;;;;;;9.71;63.96;100752.66;5134312;27;20138;-40
2021/05/06 09:12:56;;;;;;;6.97;6.30;;;;;;;9.73;61.71;100747.88;5133872;27;20031;-40
2021/05/06 09:15:22;;;;;;;5.93;5.43;;;;;;;9.72;60.25;100751.63;5136563;27;20023;-40
2021/05/06 09:17:47;;;;;;;6.63;5.90;;;;;;;9.64;60.41;100758.16;5137919;27;20019;-40
2021/05/06 09:20:17;;;;;;;6.57;5.97;;;;;;;9.61;60.89;100758.59;5138119;27;20055;-40
2021/05/06 09:22:47;;;;;;;6.53;5.93;;;;;;;9.63;61.78;100750.28;5137661;27;20031;-40
2021/05/06 09:25:41;;;;;;;7.32;6.32;;;;;;;9.87;62.26;100748.53;5137751;27;20031;-40
2021/05/06 09:28:11;;;;;;;6.30;5.70;;;;;;;9.80;58.08;100744.00;5094762;28;20054;-40
2021/05/06 09:30:49;;;;;;;6.10;5.50;;;;;;;9.88;59.30;100740.19;5094627;28;20549;-40
2021/05/06 09:33:16;;;;;;;4.97;4.20;;;;;;;10.10;55.94;100742.34;5094255;28;20404;-40
2021/05/06 09:35:44;;;;;;;5.38;4.85;;;;;;;10.41;56.00;100736.72;5094535;28;20131;-40
2021/05/06 09:38:31;;;;;;;4.32;3.92;;;;;;;10.57;55.98;100732.50;5094243;28;20508;-40
2021/05/06 09:41:01;;;;;;;4.63;4.22;;;;;;;10.58;58.88;100723.34;5094892;28;20030;-40
2021/05/06 09:43:39;;;;;;;4.47;4.07;;;;;;;10.78;57.57;100721.13;5093966;28;20069;-40
2021/05/06 09:46:21;;;;;;;4.57;4.05;;;;;;;10.68;55.75;100720.88;5094703;28;20128;-40
2021/05/06 09:48:54;;;;;;;4.40;4.00;;;;;;;10.84;56.27;100716.66;5094766;28;20353;-40
2021/05/06 09:51:29;;;;;;;5.43;4.18;;;;;;;11.27;55.18;100710.00;5093975;28;20047;-40
2021/05/06 09:53:56;;;;;;;7.90;4.50;;;;;;;11.61;52.67;100708.25;5093859;28;20035;-40
2021/05/06 09:56:24;;;;;;;3.55;3.25;;;;;;;11.67;47.79;100707.31;5093931;28;20103;-40
2021/05/06 09:58:49;;;;;;;3.63;3.05;;;;;;;11.81;48.26;100713.28;5093881;28;20392;-40
2021/05/06 10:01:15;;;;;;;3.80;3.13;;;;;;;11.94;47.10;100707.56;5093808;28;20039;-40
2021/05/06 10:03:40;;;;;;;4.23;3.37;;;;;;;11.90;46.49;100700.97;5100677;27;20122;-40
2021/05/06 10:06:18;;;;;;;4.70;3.27;;;;;;;11.74;51.07;100704.44;5137033;27;20409;-40
2021/05/06 10:08:44;;;;;;;5.60;2.95;;;;;;;11.60;49.82;100704.72;5136821;27;20744;-40
2021/05/06 10:11:18;;;;;;;3.78;3.28;;;;;;;11.65;50.24;100697.78;5137168;27;20019;-40
2021/05/06 10:13:46;;;;;;;3.90;3.50;;;;;;;11.60;51.01;100695.78;5136717;27;20057;-40
2021/05/06 10:16:12;;;;;;;5.30;3.40;;;;;;;11.32;50.78;100689.31;5136758;27;20389;-40
2021/05/06 10:18:40;;;;;;;4.68;2.97;;;;;;;11.24;50.67;100695.06;5136455;27;20483;-40
2021/05/06 10:21:11;;;;;;;4.72;3.65;;;;;;;11.14;52.77;100688.63;5137032;27;20051;-40
2021/05/06 10:23:37;;;;;;;4.82;3.70;;;;;;;11.36;52.03;100689.63;5136609;27;20031;-40
2021/05/06 10:26:04;;;;;;;4.10;3.28;;;;;;;11.46;49.43;100686.28;5135495;27;20035;-40
2021/05/06 10:28:32;;;;;;;3.53;3.10;;;;;;;11.52;50.17;100682.66;5136532;27;20382;-40
2021/05/06 10:31:00;;;;;;;3.33;2.90;;;;;;;11.42;48.09;100679.72;5136969;27;20019;-40
2021/05/06 10:33:27;;;;;;;5.07;2.70;;;;;;;11.35;50.29;100685.28;5136330;27;20037;-40
2021/05/06 10:35:53;;;;;;;4.00;2.80;;;;;;;11.12;48.55;100680.72;5136583;27;20031;-40
2021/05/06 10:38:19;;;;;;;5.55;2.95;;;;;;;11.03;48.72;100674.88;5136877;27;20433;-40
2021/05/06 10:40:45;;;;;;;4.38;3.05;;;;;;;10.83;48.53;100674.41;5136320;27;20027;-40
2021/05/06 10:43:23;;;;;;;3.35;3.03;;;;;;;10.95;49.50;100671.72;5136662;27;20102;-40
2021/05/06 10:46:14;;;;;;;3.25;2.85;;;;;;;11.05;50.36;100670.06;5136750;27;20058;-40
2021/05/06 10:49:01;;;;;;;3.22;2.92;;;;;;;10.98;50.63;100660.41;5133984;27;20095;-40
2021/05/06 10:51:36;;;;;;;3.72;3.35;;;;;;;10.88;51.79;100655.59;5136392;27;20019;-40
2021/05/06 10:54:50;;;;;;;4.85;3.63;;;;;;;10.81;51.75;100653.03;5136541;27;20027;-40
2021/05/06 10:57:16;;;;;;;4.13;3.35;;;;;;;10.77;53.48;100651.03;5093253;28;20040;-40
2021/05/06 10:59:42;;;;;;;;;;;;;;;10.94;52.98;100653.84;5093609;28;20024;-40
2021/05/06 11:02:08;;;;;;;4.80;3.17;;;;;;;11.07;51.49;100640.84;5093341;28;19915;-40
2021/05/06 11:04:38;;;;;;;3.30;3.00;;;;;;;11.12;49.90;100636.63;5092475;28;20032;-40
2021/05/06 11:07:11;;;;;;;4.43;3.28;;;;;;;11.18;51.23;100638.38;5076160;28;20357;-40
2021/05/06 11:09:43;;;;;;;5.15;3.78;;;;;;;11.23;52.33;100641.19;5092436;28;20039;-40
2021/05/06 11:12:14;;;;;;;4.57;3.20;;;;;;;11.47;53.40;100641.94;5092379;28;20024;-40
2021/05/06 11:14:58;;;;;;;5.00;3.22;;;;;;;11.76;50.10;100627.31;5092737;28;20080;-40
2021/05/06 11:17:24;;;;;;;3.83;3.10;;;;;;;12.08;46.22;100626.78;5092823;28;20525;-41
2021/05/06 11:19:49;;;;;;;4.18;2.60;;;;;;;12.31;45.43;100623.09;5092103;28;20141;-40
2021/05/06 11:22:42;;;;;;;3.80;2.90;;;;;;;12.42;46.73;100611.31;5091856;28;20048;-40
2021/05/06 11:25:25;;;;;;;4.55;2.92;;;;;;;12.43;45.91;100621.09;5092113;28;20377;-41
2021/05/06 11:27:52;;;;;;;3.05;2.67;;;;;;;12.30;46.38;100613.31;5092144;28;20606;-40
2021/05/06 11:30:30;;;;;;;;;;;;;;;12.54;45.74;100614.75;5092395;28;20036;-40
2021/05/06 11:32:55;;;;;;;3.50;2.35;;;;;;;12.41;44.25;100598.84;5100998;27;19915;-40
2021/05/06 11:35:21;;;;;;;4.47;2.97;;;;;;;12.32;44.77;100603.84;5135222;27;20079;-41
2021/05/06 11:37:52;;;;;;;4.60;2.90;;;;;;;12.25;45.51;100600.50;5135005;27;20038;-40
2021/05/06 11:40:26;;;;;;;3.08;2.63;;;;;;;12.07;44.18;100592.63;5135948;27;20023;-40
2021/05/06 11:42:51;;;;;;;3.40;2.97;;;;;;;12.14;46.25;100593.25;5135739;27;20083;-40
2021/05/06 11:45:27;;;;;;;3.88;3.00;;;;;;;12.03;47.00;100586.03;5134996;27;20451;-40
2021/05/06 11:47:55;;;;;;;3.90;3.03;;;;;;;11.88;46.33;100589.31;5135797;27;20377;-40
2021/05/06 11:50:32;;;;;;;3.88;2.63;;;;;;;11.63;45.93;100591.56;5134915;27;20087;-40
2021/05/06 11:52:59;;;;;;;3.55;2.55;;;;;;;11.51;44.77;100573.47;5135766;27;20404;-40
2021/05/06 11:55:35;;;;;;;3.22;2.92;;;;;;;11.53;48.01;100584.91;5134816;27;20064;-39
2021/05/06 11:58:02;;;;;;;3.13;2.47;;;;;;;11.52;45.48;100572.44;5134513;27;20490;-40
2021/05/06 12:00:29;;;;;;;3.47;2.45;;;;;;;11.46;47.46;100576.09;5134845;27;20080;-39
2021/05/06 12:03:03;;;;;;;3.05;2.47;;;;;;;11.37;45.83;100572.16;5134628;27;20033;-40
2021/05/06 12:05:52;;;;;;;9.30;3.22;;;;;;;11.45;46.26;100571.75;5134015;27;20160;-39
2021/05/06 12:08:20;;;;;;;4.85;3.03;;;;;;;11.44;47.31;100572.81;5134473;27;20412;-39
2021/05/06 12:10:45;;;;;;;2.83;2.10;;;;;;;11.41;44.13;100572.47;5134152;27;20067;-39
2021/05/06 12:13:10;;;;;;;3.13;2.20;;;;;;;11.31;45.40;100563.09;5134513;27;20073;-39
2021/05/06 12:15:36;;;;;;;3.13;2.43;;;;;;;11.20;44.90;100568.59;5134416;27;20807;-39
2021/05/06 12:18:19;;;;;;;3.63;2.45;;;;;;;11.11;46.09;100578.16;5134406;27;20055;-39
2021/05/06 12:20:49;;;;;;;3.13;2.58;;;;;;;10.93;48.97;100587.25;5113555;28;20038;-38
2021/05/06 12:23:15;;;;;;;3.78;2.88;;;;;;;10.58;50.82;100585.44;5112511;28;20032;-38
2021/05/06 12:25:40;;;;;;;4.00;2.50;;;;;;;10.33;53.64;100593.81;5119398;28;20146;-38
2021/05/06 12:28:05;;;;;;;4.13;3.00;;;;;;;9.99;57.88;100604.31;5134563;28;20027;-38
2021/05/06 12:30:31;;;;;;;3.87;2.80;;;;;;;9.84;59.09;100606.66;5134456;28;20030;-38
2021/05/06 12:32:56;;;;;;;3.42;2.90;;;;;;;9.85;63.37;100605.59;5134876;28;20455;-38
2021/05/06 12:35:21;;;;;;;4.53;3.07;;;;;;;9.79;62.44;100593.84;5134669;28;20382;-38
2021/05/06 12:37:50;;;;;;;3.73;3.00;;;;;;;9.78;61.25;100597.59;5134883;28;20062;-38
2021/05/06 12:40:17;;;;;;;3.10;2.72;;;;;;;9.76;60.45;100582.66;5134935;28;20023;-38
2021/05/06 12:42:42;;;;;;;2.58;2.10;;;;;;;9.71;58.03;100580.69;5134279;28;20046;-38
2021/05/06 12:45:16;;;;;;;2.80;2.30;;;;;;;9.68;59.10;100580.31;5135013;28;20023;-38
2021/05/06 12:47:48;;;;;;;3.15;2.38;;;;;;;9.62;58.94;100570.47;5134247;28;20031;-38
2021/05/06 12:50:21;;;;;;;3.75;2.97;;;;;;;9.75;57.96;100568.34;5136631;27;20489;-38
2021/05/06 12:52:48;;;;;;;3.25;2.33;;;;;;;9.88;56.58;100564.63;5138433;27;20034;-38
2021/05/06 12:55:21;;;;;;;;;;;;;;;10.08;57.41;100556.19;5138623;27;20098;-38
2021/05/06 12:58:14;;;;;;;3.00;2.28;;;;;;;10.01;56.78;100553.59;5138555;27;19976;-38
2021/05/06 13:00:41;;;;;;;5.03;3.03;;;;;;;10.16;60.10;100550.44;5138242;27;20064;-38
2021/05/06 13:03:09;;;;;;;3.92;3.22;;;;;;;10.43;63.44;100547.25;5137787;27;20546;-38
2021/05/06 13:05:45;;;;;;;3.97;3.15;;;;;;;10.60;59.54;100547.38;5138454;27;20105;-38
2021/05/06 13:08:11;;;;;;;5.45;3.20;;;;;;;10.88;58.22;100541.97;5138936;27;20105;-38
2021/05/06 13:10:43;;;;;;;5.55;3.35;;;;;;;10.85;56.27;100539.78;5138157;27;20088;-38
2021/05/06 13:13:10;;;;;;;3.28;2.83;;;;;;;10.96;58.40;100538.91;5138188;27;20019;-38
2021/05/06 13:15:49;;;;;;;4.05;3.13;;;;;;;11.08;57.17;100530.75;5138476;27;20020;-38
2021/05/06 13:18:15;;;;;;;3.53;3.03;;;;;;;11.09;55.47;100527.81;5137797;27;20023;-39
2021/05/06 13:20:41;;;;;;;3.38;2.95;;;;;;;11.13;53.29;100524.63;5137552;27;20464;-38
2021/05/06 13:23:09;;;;;;;4.00;3.03;;;;;;;11.06;53.85;100522.03;5137979;27;21885;-38
2021/05/06 13:25:47;;;;;;;4.07;2.50;;;;;;;11.21;52.75;100526.91;5137411;27;20038;-38
2021/05/06 13:28:16;;;;;;;3.13;2.83;;;;;;;11.44;57.25;100520.56;5137604;27;20494;-38
2021/05/06 13:30:43;;;;;;;2.70;2.42;;;;;;;11.70;54.63;100521.81;5137707;27;20019;-38
2021/05/06 13:33:13;;;;;;;3.97;2.60;;;;;;;11.89;52.78;100515.09;5138066;27;20023;-38
2021/05/06 13:35:39;;;;;;;3.45;2.60;;;;;;;12.02;54.23;100514.75;5137573;27;20115;-38
2021/05/06 13:38:05;;;;;;;3.25;2.28;;;;;;;12.04;53.33;100507.19;5137492;27;20031;-38
2021/05/06 13:40:30;;;;;;;3.23;2.60;;;;;;;11.77;52.80;100503.50;5137431;27;20046;-38
2021/05/06 13:42:56;;;;;;;2.30;2.10;;;;;;;11.68;50.35;100505.81;5138089;27;20035;-38
2021/05/06 13:45:21;;;;;;;2.90;2.20;;;;;;;11.73;50.06;100499.66;5138191;27;20035;-38
2021/05/06 13:47:50;;;;;;;3.00;2.57;;;;;;;11.69;53.44;100493.09;5137367;27;20054;-38
2021/05/06 13:50:16;;;;;;;3.42;3.13;;;;;;;11.50;53.39;100493.31;5136956;27;20019;-38
2021/05/06 13:52:42;;;;;;;4.65;3.60;;;;;;;11.52;55.45;100488.50;5137977;27;20110;-38
2021/05/06 13:55:08;;;;;;;;;;;;;;;11.60;53.72;100479.13;5137690;27;20027;-38
2021/05/06 13:57:34;;;;;;;4.43;3.22;;;;;;;11.17;52.74;100490.56;5137070;27;19908;-38
2021/05/06 13:59:59;;;;;;;3.87;2.93;;;;;;;11.29;53.51;100491.34;5137013;27;20035;-38
2021/05/06 14:02:26;;;;;;;3.70;3.25;;;;;;;11.23;54.99;100493.16;5137559;27;20019;-38
2021/05/06 14:04:52;;;;;;;5.53;4.07;;;;;;;11.18;56.76;100484.94;5137283;27;20441;-38
2021/05/06 14:07:17;;;;;;;4.40;4.00;;;;;;;10.91;56.67;100490.09;5137191;27;20056;-38
2021/05/06 14:09:43;;;;;;;6.10;3.90;;;;;;;10.98;57.58;100493.50;5137256;27;20027;-38
2021/05/06 14:12:08;;;;;;;5.15;4.38;;;;;;;10.81;56.04;100479.91;5137038;27;20051;-38
2021/05/06 14:14:34;;;;;;;4.30;3.80;;;;;;;10.90;58.00;100479.53;5137473;27;20058;-38
2021/05/06 14:17:01;;;;;;;5.00;4.50;;;;;;;11.04;58.44;100479.00;5136837;27;20019;-38
2021/05/06 14:19:26;;;;;;;6.30;4.38;;;;;;;11.06;56.92;100476.84;5137007;27;20062;-38
2021/05/06 14:21:53;;;;;;;6.20;4.40;;;;;;;11.04;57.58;100480.88;5137736;27;20092;-38
2021/05/06 14:24:18;;;;;;;4.95;3.95;;;;;;;10.96;55.28;100486.69;5136816;27;20030;-38
2021/05/06 14:26:47;;;;;;;5.82;4.35;;;;;;;11.11;56.63;100478.84;5135947;27;20027;-38
2021/05/06 14:29:14;;;;;;;4.90;4.10;;;;;;;11.21;56.13;100473.59;5136463;27;20031;-38
2021/05/06 14:31:39;;;;;;;4.22;3.83;;;;;;;11.30;56.74;100477.56;5137332;27;20362;-38
2021/05/06 14:34:05;;;;;;;4.30;3.90;;;;;;;11.45;57.06;100466.16;5136185;27;20023;-38
2021/05/06 14:36:30;;;;;;;4.93;3.97;;;;;;;11.52;56.17;100464.13;5136746;27;20023;-38
2021/05/06 14:38:58;;;;;;;5.70;4.70;;;;;;;11.59;55.22;100462.06;5136385;27;20027;-38
2021/05/06 14:41:23;;;;;;;4.80;4.38;;;;;;;11.78;55.26;100475.34;5136828;27;20671;-38
2021/05/06 14:43:48;;;;;;;6.80;4.27;;;;;;;11.92;56.38;100465.84;5135921;27;20070;-38
2021/05/06 14:46:14;;;;;;;5.93;4.67;;;;;;;11.92;55.31;100476.69;5136547;27;20059;-38
2021/05/06 14:48:39;;;;;;;4.83;4.33;;;;;;;11.88;55.18;100464.69;5135915;27;20031;-38
2021/05/06 14:51:04;;;;;;;4.80;4.40;;;;;;;11.91;55.86;100464.22;5136175;27;20023;-38
2021/05/06 14:53:30;;;;;;;5.03;4.20;;;;;;;11.92;53.87;100465.84;5136066;27;20034;-38
2021/05/06 14:55:57;;;;;;;6.88;5.20;;;;;;;11.82;54.13;100457.56;5136006;27;20032;-38
2021/05/06 14:58:26;;;;;;;5.20;4.70;;;;;;;11.67;55.09;100460.03;5136242;27;20348;-38
2021/05/06 15:00:51;;;;;;;5.75;4.30;;;;;;;11.69;54.66;100452.47;5135889;27;20119;-38
2021/05/06 15:03:16;;;;;;;4.87;4.30;;;;;;;11.81;55.74;100459.44;5135826;27;20077;-38
2021/05/06 15:05:42;;;;;;;4.90;4.40;;;;;;;11.83;54.90;100456.50;5135835;27;20095;-38